sensor_id;sensor_type;location;lat;lon;timestamp;P1;durP1;ratioP1;P2;durP2;ratioP2
5428;SDS011;2737;52.386;9.980;2023-04-25T00:02:20;8.03;;;3.77;;
5428;SDS011;2737;52.386;9.980;2023-04-25T00:04:47;11.63;;;4.30;;
5428;SDS011;2737;52.386;9.980;2023-04-25T00:07:16;10.23;;;3.53;;
5428;SDS011;2737;52.386;9.980;2023-04-25T00:09:43;11.73;;;4.30;;
5428;SDS011;2737;52.386;9.980;2023-04-25T00:12:10;11.87;;;4.20;;
5428;SDS011;2737;52.386;9.980;2023-04-25T00:14:37;13.40;;;3.90;;
5428;SDS011;2737;52.386;9.980;2023-04-25T00:17:04;9.30;;;3.80;;
5428;SDS011;2737;52.386;9.980;2023-04-25T00:19:31;16.10;;;4.37;;
5428;SDS011;2737;52.386;9.980;2023-04-25T00:21:59;10.70;;;4.40;;
5428;SDS011;2737;52.386;9.980;2023-04-25T00:24:28;10.17;;;4.70;;
5428;SDS011;2737;52.386;9.980;2023-04-25T00:26:55;10.70;;;4.47;;
5428;SDS011;2737;52.386;9.980;2023-04-25T00:29:22;16.87;;;5.57;;
5428;SDS011;2737;52.386;9.980;2023-04-25T00:31:49;9.37;;;4.40;;
5428;SDS011;2737;52.386;9.980;2023-04-25T00:34:16;16.73;;;4.97;;
5428;SDS011;2737;52.386;9.980;2023-04-25T00:36:43;11.70;;;4.27;;
5428;SDS011;2737;52.386;9.980;2023-04-25T00:39:11;7.73;;;4.70;;
5428;SDS011;2737;52.386;9.980;2023-04-25T00:41:40;8.43;;;3.93;;
5428;SDS011;2737;52.386;9.980;2023-04-25T00:44:08;22.20;;;4.57;;
5428;SDS011;2737;52.386;9.980;2023-04-25T00:46:36;21.50;;;5.10;;
5428;SDS011;2737;52.386;9.980;2023-04-25T00:49:04;11.60;;;4.13;;
5428;SDS011;2737;52.386;9.980;2023-04-25T00:51:31;13.17;;;4.47;;
5428;SDS011;2737;52.386;9.980;2023-04-25T00:54:00;13.10;;;4.17;;
5428;SDS011;2737;52.386;9.980;2023-04-25T00:56:27;13.50;;;4.10;;
5428;SDS011;2737;52.386;9.980;2023-04-25T00:58:56;10.17;;;3.70;;
5428;SDS011;2737;52.386;9.980;2023-04-25T01:01:23;9.23;;;3.93;;
5428;SDS011;2737;52.386;9.980;2023-04-25T01:03:50;12.00;;;4.70;;
5428;SDS011;2737;52.386;9.980;2023-04-25T01:06:19;13.00;;;4.20;;
5428;SDS011;2737;52.386;9.980;2023-04-25T01:08:47;10.97;;;4.07;;
5428;SDS011;2737;52.386;9.980;2023-04-25T01:11:14;8.17;;;3.93;;
5428;SDS011;2737;52.386;9.980;2023-04-25T01:13:41;10.77;;;3.90;;
5428;SDS011;2737;52.386;9.980;2023-04-25T01:16:10;16.30;;;4.47;;
5428;SDS011;2737;52.386;9.980;2023-04-25T01:18:37;8.73;;;3.87;;
5428;SDS011;2737;52.386;9.980;2023-04-25T01:21:08;8.60;;;4.10;;
5428;SDS011;2737;52.386;9.980;2023-04-25T01:23:36;11.70;;;4.83;;
5428;SDS011;2737;52.386;9.980;2023-04-25T01:26:03;12.47;;;3.73;;
5428;SDS011;2737;52.386;9.980;2023-04-25T01:28:32;8.80;;;4.83;;
5428;SDS011;2737;52.386;9.980;2023-04-25T01:31:00;12.70;;;4.80;;
5428;SDS011;2737;52.386;9.980;2023-04-25T01:33:28;12.70;;;3.60;;
5428;SDS011;2737;52.386;9.980;2023-04-25T01:35:56;13.40;;;4.83;;
5428;SDS011;2737;52.386;9.980;2023-04-25T01:38:24;17.47;;;4.80;;
5428;SDS011;2737;52.386;9.980;2023-04-25T01:40:51;10.60;;;4.80;;
5428;SDS011;2737;52.386;9.980;2023-04-25T01:43:19;15.80;;;5.20;;
5428;SDS011;2737;52.386;9.980;2023-04-25T01:45:47;13.03;;;5.10;;
5428;SDS011;2737;52.386;9.980;2023-04-25T01:48:15;16.33;;;5.00;;
5428;SDS011;2737;52.386;9.980;2023-04-25T01:50:42;15.93;;;4.80;;
5428;SDS011;2737;52.386;9.980;2023-04-25T01:53:10;12.83;;;4.63;;
5428;SDS011;2737;52.386;9.980;2023-04-25T01:55:40;15.30;;;6.20;;
5428;SDS011;2737;52.386;9.980;2023-04-25T01:58:07;14.00;;;5.50;;
5428;SDS011;2737;52.386;9.980;2023-04-25T02:00:38;16.33;;;4.87;;
5428;SDS011;2737;52.386;9.980;2023-04-25T02:03:06;17.83;;;5.57;;
5428;SDS011;2737;52.386;9.980;2023-04-25T02:05:36;10.33;;;4.53;;
5428;SDS011;2737;52.386;9.980;2023-04-25T02:08:04;9.30;;;4.70;;
5428;SDS011;2737;52.386;9.980;2023-04-25T02:10:32;16.50;;;5.27;;
5428;SDS011;2737;52.386;9.980;2023-04-25T02:13:01;14.60;;;5.93;;
5428;SDS011;2737;52.386;9.980;2023-04-25T02:15:29;16.47;;;5.50;;
5428;SDS011;2737;52.386;9.980;2023-04-25T02:17:56;13.50;;;5.90;;
5428;SDS011;2737;52.386;9.980;2023-04-25T02:20:25;16.73;;;5.40;;
5428;SDS011;2737;52.386;9.980;2023-04-25T02:22:52;10.70;;;4.90;;
5428;SDS011;2737;52.386;9.980;2023-04-25T02:25:19;14.23;;;5.30;;
5428;SDS011;2737;52.386;9.980;2023-04-25T02:27:47;15.07;;;5.37;;
5428;SDS011;2737;52.386;9.980;2023-04-25T02:30:15;11.20;;;5.30;;
5428;SDS011;2737;52.386;9.980;2023-04-25T02:32:42;17.90;;;5.60;;
5428;SDS011;2737;52.386;9.980;2023-04-25T02:35:09;9.80;;;4.93;;
5428;SDS011;2737;52.386;9.980;2023-04-25T02:37:37;22.53;;;5.47;;
5428;SDS011;2737;52.386;9.980;2023-04-25T02:40:05;15.13;;;5.20;;
5428;SDS011;2737;52.386;9.980;2023-04-25T02:42:33;8.30;;;5.07;;
5428;SDS011;2737;52.386;9.980;2023-04-25T02:45:00;8.03;;;4.80;;
5428;SDS011;2737;52.386;9.980;2023-04-25T02:47:29;13.93;;;5.00;;
5428;SDS011;2737;52.386;9.980;2023-04-25T02:49:56;15.67;;;5.10;;
5428;SDS011;2737;52.386;9.980;2023-04-25T02:52:23;10.57;;;4.47;;
5428;SDS011;2737;52.386;9.980;2023-04-25T02:54:50;10.87;;;5.23;;
5428;SDS011;2737;52.386;9.980;2023-04-25T02:57:17;16.80;;;4.57;;
5428;SDS011;2737;52.386;9.980;2023-04-25T02:59:44;17.83;;;5.00;;
5428;SDS011;2737;52.386;9.980;2023-04-25T03:02:11;15.00;;;4.47;;
5428;SDS011;2737;52.386;9.980;2023-04-25T03:04:39;23.67;;;4.57;;
5428;SDS011;2737;52.386;9.980;2023-04-25T03:07:06;13.13;;;3.60;;
5428;SDS011;2737;52.386;9.980;2023-04-25T03:09:34;11.27;;;3.87;;
5428;SDS011;2737;52.386;9.980;2023-04-25T03:12:01;14.33;;;4.30;;
5428;SDS011;2737;52.386;9.980;2023-04-25T03:14:28;14.20;;;3.90;;
5428;SDS011;2737;52.386;9.980;2023-04-25T03:16:55;18.37;;;4.03;;
5428;SDS011;2737;52.386;9.980;2023-04-25T03:19:22;20.77;;;4.10;;
5428;SDS011;2737;52.386;9.980;2023-04-25T03:21:50;16.00;;;4.43;;
5428;SDS011;2737;52.386;9.980;2023-04-25T03:24:18;25.57;;;4.73;;
5428;SDS011;2737;52.386;9.980;2023-04-25T03:26:45;15.43;;;3.40;;
5428;SDS011;2737;52.386;9.980;2023-04-25T03:29:12;21.43;;;3.63;;
5428;SDS011;2737;52.386;9.980;2023-04-25T03:31:39;15.30;;;3.20;;
5428;SDS011;2737;52.386;9.980;2023-04-25T03:34:06;29.63;;;3.80;;
5428;SDS011;2737;52.386;9.980;2023-04-25T03:36:33;26.93;;;4.53;;
5428;SDS011;2737;52.386;9.980;2023-04-25T03:39:02;19.77;;;3.70;;
5428;SDS011;2737;52.386;9.980;2023-04-25T03:41:29;25.23;;;3.80;;
5428;SDS011;2737;52.386;9.980;2023-04-25T03:43:56;17.40;;;3.70;;
5428;SDS011;2737;52.386;9.980;2023-04-25T03:46:23;11.23;;;3.63;;
5428;SDS011;2737;52.386;9.980;2023-04-25T03:48:50;15.67;;;4.70;;
5428;SDS011;2737;52.386;9.980;2023-04-25T03:51:17;20.73;;;3.53;;
5428;SDS011;2737;52.386;9.980;2023-04-25T03:53:44;14.37;;;4.23;;
5428;SDS011;2737;52.386;9.980;2023-04-25T03:56:12;19.10;;;3.80;;
5428;SDS011;2737;52.386;9.980;2023-04-25T03:58:39;24.87;;;4.40;;
5428;SDS011;2737;52.386;9.980;2023-04-25T04:01:06;25.87;;;5.27;;
5428;SDS011;2737;52.386;9.980;2023-04-25T04:03:33;22.67;;;4.50;;
5428;SDS011;2737;52.386;9.980;2023-04-25T04:06:00;21.10;;;4.73;;
5428;SDS011;2737;52.386;9.980;2023-04-25T04:08:29;23.37;;;4.53;;
5428;SDS011;2737;52.386;9.980;2023-04-25T04:10:56;23.83;;;4.40;;
5428;SDS011;2737;52.386;9.980;2023-04-25T04:13:25;18.97;;;4.27;;
5428;SDS011;2737;52.386;9.980;2023-04-25T04:15:52;18.43;;;3.80;;
5428;SDS011;2737;52.386;9.980;2023-04-25T04:18:19;30.13;;;4.90;;
5428;SDS011;2737;52.386;9.980;2023-04-25T04:20:46;28.37;;;4.87;;
5428;SDS011;2737;52.386;9.980;2023-04-25T04:23:13;15.53;;;4.83;;
5428;SDS011;2737;52.386;9.980;2023-04-25T04:25:40;17.00;;;3.70;;
5428;SDS011;2737;52.386;9.980;2023-04-25T04:28:07;29.23;;;4.40;;
5428;SDS011;2737;52.386;9.980;2023-04-25T04:30:37;19.43;;;4.47;;
5428;SDS011;2737;52.386;9.980;2023-04-25T04:33:04;29.90;;;4.30;;
5428;SDS011;2737;52.386;9.980;2023-04-25T04:35:32;23.77;;;3.50;;
5428;SDS011;2737;52.386;9.980;2023-04-25T04:37:59;15.60;;;4.00;;
5428;SDS011;2737;52.386;9.980;2023-04-25T04:40:26;20.63;;;4.53;;
5428;SDS011;2737;52.386;9.980;2023-04-25T04:42:55;25.00;;;3.83;;
5428;SDS011;2737;52.386;9.980;2023-04-25T04:45:22;19.10;;;5.00;;
5428;SDS011;2737;52.386;9.980;2023-04-25T04:47:51;23.37;;;3.80;;
5428;SDS011;2737;52.386;9.980;2023-04-25T04:50:20;18.90;;;3.97;;
5428;SDS011;2737;52.386;9.980;2023-04-25T04:52:47;27.67;;;4.30;;
5428;SDS011;2737;52.386;9.980;2023-04-25T04:55:14;23.27;;;4.47;;
5428;SDS011;2737;52.386;9.980;2023-04-25T04:57:41;20.13;;;4.50;;
5428;SDS011;2737;52.386;9.980;2023-04-25T05:00:09;19.13;;;3.60;;
5428;SDS011;2737;52.386;9.980;2023-04-25T05:02:37;25.63;;;4.30;;
5428;SDS011;2737;52.386;9.980;2023-04-25T05:05:07;19.07;;;5.90;;
5428;SDS011;2737;52.386;9.980;2023-04-25T05:07:34;16.97;;;3.80;;
5428;SDS011;2737;52.386;9.980;2023-04-25T05:10:01;16.43;;;3.37;;
5428;SDS011;2737;52.386;9.980;2023-04-25T05:12:28;17.50;;;3.13;;
5428;SDS011;2737;52.386;9.980;2023-04-25T05:14:55;24.57;;;3.60;;
5428;SDS011;2737;52.386;9.980;2023-04-25T05:17:22;20.77;;;3.50;;
5428;SDS011;2737;52.386;9.980;2023-04-25T05:19:49;16.63;;;4.10;;
5428;SDS011;2737;52.386;9.980;2023-04-25T05:22:18;15.80;;;3.63;;
5428;SDS011;2737;52.386;9.980;2023-04-25T05:24:45;19.73;;;4.03;;
5428;SDS011;2737;52.386;9.980;2023-04-25T05:27:16;23.83;;;4.23;;
5428;SDS011;2737;52.386;9.980;2023-04-25T05:29:43;13.33;;;4.03;;
5428;SDS011;2737;52.386;9.980;2023-04-25T05:32:10;24.63;;;3.60;;
5428;SDS011;2737;52.386;9.980;2023-04-25T05:34:37;17.60;;;4.07;;
5428;SDS011;2737;52.386;9.980;2023-04-25T05:37:05;22.53;;;3.97;;
5428;SDS011;2737;52.386;9.980;2023-04-25T05:39:33;22.07;;;5.10;;
5428;SDS011;2737;52.386;9.980;2023-04-25T05:42:00;16.60;;;3.33;;
5428;SDS011;2737;52.386;9.980;2023-04-25T05:44:28;17.23;;;3.57;;
5428;SDS011;2737;52.386;9.980;2023-04-25T05:46:56;15.50;;;3.50;;
5428;SDS011;2737;52.386;9.980;2023-04-25T05:49:23;19.80;;;4.20;;
5428;SDS011;2737;52.386;9.980;2023-04-25T05:51:50;21.03;;;3.80;;
5428;SDS011;2737;52.386;9.980;2023-04-25T05:54:17;26.97;;;3.60;;
5428;SDS011;2737;52.386;9.980;2023-04-25T05:56:45;20.07;;;3.27;;
5428;SDS011;2737;52.386;9.980;2023-04-25T05:59:12;20.70;;;3.13;;
5428;SDS011;2737;52.386;9.980;2023-04-25T06:01:39;18.50;;;3.67;;
5428;SDS011;2737;52.386;9.980;2023-04-25T06:04:07;18.53;;;3.77;;
5428;SDS011;2737;52.386;9.980;2023-04-25T06:06:34;15.23;;;3.50;;
5428;SDS011;2737;52.386;9.980;2023-04-25T06:09:01;20.13;;;3.90;;
5428;SDS011;2737;52.386;9.980;2023-04-25T06:11:28;15.00;;;3.07;;
5428;SDS011;2737;52.386;9.980;2023-04-25T06:13:56;17.37;;;3.43;;
5428;SDS011;2737;52.386;9.980;2023-04-25T06:16:23;25.67;;;3.37;;
5428;SDS011;2737;52.386;9.980;2023-04-25T06:18:51;16.83;;;3.00;;
5428;SDS011;2737;52.386;9.980;2023-04-25T06:21:18;24.50;;;4.13;;
5428;SDS011;2737;52.386;9.980;2023-04-25T06:23:45;29.43;;;4.27;;
5428;SDS011;2737;52.386;9.980;2023-04-25T06:26:12;15.63;;;3.07;;
5428;SDS011;2737;52.386;9.980;2023-04-25T06:28:39;14.20;;;2.50;;
5428;SDS011;2737;52.386;9.980;2023-04-25T06:31:07;13.73;;;2.97;;
5428;SDS011;2737;52.386;9.980;2023-04-25T06:33:34;20.63;;;2.97;;
5428;SDS011;2737;52.386;9.980;2023-04-25T06:36:01;9.57;;;3.30;;
5428;SDS011;2737;52.386;9.980;2023-04-25T06:38:28;17.97;;;3.13;;
5428;SDS011;2737;52.386;9.980;2023-04-25T06:40:56;15.90;;;2.87;;
5428;SDS011;2737;52.386;9.980;2023-04-25T06:43:23;16.53;;;2.90;;
5428;SDS011;2737;52.386;9.980;2023-04-25T06:45:50;15.73;;;3.00;;
5428;SDS011;2737;52.386;9.980;2023-04-25T06:48:19;13.83;;;2.87;;
5428;SDS011;2737;52.386;9.980;2023-04-25T06:50:45;16.50;;;2.33;;
5428;SDS011;2737;52.386;9.980;2023-04-25T06:53:12;10.20;;;2.90;;
5428;SDS011;2737;52.386;9.980;2023-04-25T06:55:39;10.47;;;2.83;;
5428;SDS011;2737;52.386;9.980;2023-04-25T06:58:06;13.30;;;2.70;;
5428;SDS011;2737;52.386;9.980;2023-04-25T07:00:33;16.23;;;2.90;;
5428;SDS011;2737;52.386;9.980;2023-04-25T07:03:01;17.73;;;2.97;;
5428;SDS011;2737;52.386;9.980;2023-04-25T07:05:29;14.13;;;2.60;;
5428;SDS011;2737;52.386;9.980;2023-04-25T07:07:56;16.03;;;2.50;;
5428;SDS011;2737;52.386;9.980;2023-04-25T07:10:23;7.40;;;2.37;;
5428;SDS011;2737;52.386;9.980;2023-04-25T07:12:50;12.03;;;2.60;;
5428;SDS011;2737;52.386;9.980;2023-04-25T07:15:17;16.90;;;2.60;;
5428;SDS011;2737;52.386;9.980;2023-04-25T07:17:44;21.13;;;3.20;;
5428;SDS011;2737;52.386;9.980;2023-04-25T07:20:11;18.63;;;2.60;;
5428;SDS011;2737;52.386;9.980;2023-04-25T07:22:40;8.63;;;1.97;;
5428;SDS011;2737;52.386;9.980;2023-04-25T07:25:07;13.50;;;2.93;;
5428;SDS011;2737;52.386;9.980;2023-04-25T07:27:35;19.83;;;2.90;;
5428;SDS011;2737;52.386;9.980;2023-04-25T07:30:02;11.73;;;2.70;;
5428;SDS011;2737;52.386;9.980;2023-04-25T07:32:30;12.50;;;2.80;;
5428;SDS011;2737;52.386;9.980;2023-04-25T07:34:57;18.33;;;3.80;;
5428;SDS011;2737;52.386;9.980;2023-04-25T07:37:24;10.17;;;2.20;;
5428;SDS011;2737;52.386;9.980;2023-04-25T07:39:52;17.60;;;3.10;;
5428;SDS011;2737;52.386;9.980;2023-04-25T07:42:19;12.37;;;2.20;;
5428;SDS011;2737;52.386;9.980;2023-04-25T07:44:47;17.63;;;3.00;;
5428;SDS011;2737;52.386;9.980;2023-04-25T07:47:14;9.87;;;2.50;;
5428;SDS011;2737;52.386;9.980;2023-04-25T07:49:41;13.47;;;2.40;;
5428;SDS011;2737;52.386;9.980;2023-04-25T07:52:08;8.93;;;2.40;;
5428;SDS011;2737;52.386;9.980;2023-04-25T07:54:35;10.47;;;2.30;;
5428;SDS011;2737;52.386;9.980;2023-04-25T07:57:03;9.00;;;2.60;;
5428;SDS011;2737;52.386;9.980;2023-04-25T07:59:31;21.13;;;3.10;;
5428;SDS011;2737;52.386;9.980;2023-04-25T08:01:58;15.40;;;2.70;;
5428;SDS011;2737;52.386;9.980;2023-04-25T08:04:26;14.63;;;2.80;;
5428;SDS011;2737;52.386;9.980;2023-04-25T08:06:53;24.23;;;2.93;;
5428;SDS011;2737;52.386;9.980;2023-04-25T08:09:20;12.03;;;2.30;;
5428;SDS011;2737;52.386;9.980;2023-04-25T08:11:47;9.37;;;1.53;;
5428;SDS011;2737;52.386;9.980;2023-04-25T08:14:16;10.20;;;2.20;;
5428;SDS011;2737;52.386;9.980;2023-04-25T08:16:43;10.27;;;2.33;;
5428;SDS011;2737;52.386;9.980;2023-04-25T08:19:10;9.17;;;2.53;;
5428;SDS011;2737;52.386;9.980;2023-04-25T08:21:37;12.17;;;2.10;;
5428;SDS011;2737;52.386;9.980;2023-04-25T08:24:04;7.17;;;2.00;;
5428;SDS011;2737;52.386;9.980;2023-04-25T08:26:31;9.50;;;2.10;;
5428;SDS011;2737;52.386;9.980;2023-04-25T08:28:59;4.43;;;1.73;;
5428;SDS011;2737;52.386;9.980;2023-04-25T08:31:28;7.00;;;1.80;;
5428;SDS011;2737;52.386;9.980;2023-04-25T08:33:55;17.87;;;2.23;;
5428;SDS011;2737;52.386;9.980;2023-04-25T08:36:22;8.30;;;2.23;;
5428;SDS011;2737;52.386;9.980;2023-04-25T08:38:49;10.53;;;2.30;;
5428;SDS011;2737;52.386;9.980;2023-04-25T08:41:16;15.60;;;2.07;;
5428;SDS011;2737;52.386;9.980;2023-04-25T08:43:45;13.00;;;1.80;;
5428;SDS011;2737;52.386;9.980;2023-04-25T08:46:15;9.83;;;2.90;;
5428;SDS011;2737;52.386;9.980;2023-04-25T08:48:45;11.70;;;2.37;;
5428;SDS011;2737;52.386;9.980;2023-04-25T08:51:15;5.30;;;1.60;;
5428;SDS011;2737;52.386;9.980;2023-04-25T08:53:47;13.57;;;2.33;;
5428;SDS011;2737;52.386;9.980;2023-04-25T08:56:17;11.60;;;1.70;;
5428;SDS011;2737;52.386;9.980;2023-04-25T08:58:47;5.63;;;1.90;;
5428;SDS011;2737;52.386;9.980;2023-04-25T09:01:15;13.90;;;2.00;;
5428;SDS011;2737;52.386;9.980;2023-04-25T09:03:43;15.93;;;2.40;;
5428;SDS011;2737;52.386;9.980;2023-04-25T09:06:12;7.57;;;1.90;;
5428;SDS011;2737;52.386;9.980;2023-04-25T09:08:41;6.40;;;1.70;;
5428;SDS011;2737;52.386;9.980;2023-04-25T09:11:08;11.27;;;2.43;;
5428;SDS011;2737;52.386;9.980;2023-04-25T09:13:35;7.03;;;1.90;;
5428;SDS011;2737;52.386;9.980;2023-04-25T09:16:02;8.13;;;2.13;;
5428;SDS011;2737;52.386;9.980;2023-04-25T09:18:30;11.97;;;2.20;;
5428;SDS011;2737;52.386;9.980;2023-04-25T09:21:04;4.30;;;1.70;;
5428;SDS011;2737;52.386;9.980;2023-04-25T09:23:38;16.27;;;2.00;;
5428;SDS011;2737;52.386;9.980;2023-04-25T09:26:06;18.10;;;2.60;;
5428;SDS011;2737;52.386;9.980;2023-04-25T09:28:34;8.00;;;2.00;;
5428;SDS011;2737;52.386;9.980;2023-04-25T09:31:03;8.87;;;1.80;;
5428;SDS011;2737;52.386;9.980;2023-04-25T09:33:30;11.50;;;1.40;;
5428;SDS011;2737;52.386;9.980;2023-04-25T09:36:04;12.53;;;1.90;;
5428;SDS011;2737;52.386;9.980;2023-04-25T09:38:40;6.60;;;1.73;;
5428;SDS011;2737;52.386;9.980;2023-04-25T09:41:08;9.53;;;1.63;;
5428;SDS011;2737;52.386;9.980;2023-04-25T09:43:37;11.37;;;2.00;;
5428;SDS011;2737;52.386;9.980;2023-04-25T09:46:07;7.30;;;2.10;;
5428;SDS011;2737;52.386;9.980;2023-04-25T09:48:36;5.07;;;1.63;;
5428;SDS011;2737;52.386;9.980;2023-04-25T09:51:05;7.70;;;1.40;;
5428;SDS011;2737;52.386;9.980;2023-04-25T09:53:33;6.63;;;1.53;;
5428;SDS011;2737;52.386;9.980;2023-04-25T09:56:02;6.87;;;1.40;;
5428;SDS011;2737;52.386;9.980;2023-04-25T09:58:31;3.43;;;1.37;;
5428;SDS011;2737;52.386;9.980;2023-04-25T10:01:00;4.13;;;1.37;;
5428;SDS011;2737;52.386;9.980;2023-04-25T10:03:29;2.73;;;1.00;;
5428;SDS011;2737;52.386;9.980;2023-04-25T10:05:57;5.73;;;1.70;;
5428;SDS011;2737;52.386;9.980;2023-04-25T10:08:29;10.43;;;1.70;;
5428;SDS011;2737;52.386;9.980;2023-04-25T10:10:59;4.70;;;1.50;;
5428;SDS011;2737;52.386;9.980;2023-04-25T10:13:28;4.47;;;1.27;;
5428;SDS011;2737;52.386;9.980;2023-04-25T10:15:56;10.10;;;1.70;;
5428;SDS011;2737;52.386;9.980;2023-04-25T10:18:24;6.10;;;1.67;;
5428;SDS011;2737;52.386;9.980;2023-04-25T10:20:53;5.13;;;1.10;;
5428;SDS011;2737;52.386;9.980;2023-04-25T10:23:21;5.40;;;1.17;;
5428;SDS011;2737;52.386;9.980;2023-04-25T10:25:51;8.77;;;1.50;;
5428;SDS011;2737;52.386;9.980;2023-04-25T10:28:19;7.90;;;1.97;;
5428;SDS011;2737;52.386;9.980;2023-04-25T10:33:29;10.60;;;1.50;;
5428;SDS011;2737;52.386;9.980;2023-04-25T10:35:59;11.10;;;1.73;;
5428;SDS011;2737;52.386;9.980;2023-04-25T10:38:35;5.90;;;1.43;;
5428;SDS011;2737;52.386;9.980;2023-04-25T10:41:05;3.97;;;1.47;;
5428;SDS011;2737;52.386;9.980;2023-04-25T10:43:34;6.23;;;1.27;;
5428;SDS011;2737;52.386;9.980;2023-04-25T10:46:18;4.20;;;1.63;;
5428;SDS011;2737;52.386;9.980;2023-04-25T10:48:48;8.03;;;1.60;;
5428;SDS011;2737;52.386;9.980;2023-04-25T10:51:17;12.23;;;2.10;;
5428;SDS011;2737;52.386;9.980;2023-04-25T10:53:56;9.53;;;1.53;;
5428;SDS011;2737;52.386;9.980;2023-04-25T10:56:27;8.10;;;1.87;;
5428;SDS011;2737;52.386;9.980;2023-04-25T10:59:05;16.53;;;1.93;;
5428;SDS011;2737;52.386;9.980;2023-04-25T11:01:35;6.67;;;1.37;;
5428;SDS011;2737;52.386;9.980;2023-04-25T11:04:04;6.83;;;1.20;;
5428;SDS011;2737;52.386;9.980;2023-04-25T11:06:34;12.27;;;1.70;;
5428;SDS011;2737;52.386;9.980;2023-04-25T11:09:13;6.67;;;1.73;;
5428;SDS011;2737;52.386;9.980;2023-04-25T11:11:41;4.03;;;1.07;;
5428;SDS011;2737;52.386;9.980;2023-04-25T11:14:08;12.77;;;1.57;;
5428;SDS011;2737;52.386;9.980;2023-04-25T11:16:35;7.20;;;1.50;;
5428;SDS011;2737;52.386;9.980;2023-04-25T11:19:02;12.07;;;2.27;;
5428;SDS011;2737;52.386;9.980;2023-04-25T11:21:30;6.10;;;1.70;;
5428;SDS011;2737;52.386;9.980;2023-04-25T11:23:57;8.50;;;1.63;;
5428;SDS011;2737;52.386;9.980;2023-04-25T11:26:26;6.63;;;1.77;;
5428;SDS011;2737;52.386;9.980;2023-04-25T11:28:58;4.33;;;1.50;;
5428;SDS011;2737;52.386;9.980;2023-04-25T11:31:25;11.10;;;1.50;;
5428;SDS011;2737;52.386;9.980;2023-04-25T11:33:52;5.07;;;1.17;;
5428;SDS011;2737;52.386;9.980;2023-04-25T11:36:20;3.90;;;1.10;;
5428;SDS011;2737;52.386;9.980;2023-04-25T11:38:48;1.07;;;0.87;;
5428;SDS011;2737;52.386;9.980;2023-04-25T11:41:16;3.20;;;1.20;;
5428;SDS011;2737;52.386;9.980;2023-04-25T11:43:44;3.03;;;1.30;;
5428;SDS011;2737;52.386;9.980;2023-04-25T11:46:12;4.13;;;1.03;;
5428;SDS011;2737;52.386;9.980;2023-04-25T11:48:39;5.50;;;1.53;;
5428;SDS011;2737;52.386;9.980;2023-04-25T11:51:07;4.13;;;1.13;;
5428;SDS011;2737;52.386;9.980;2023-04-25T11:53:35;4.23;;;1.10;;
5428;SDS011;2737;52.386;9.980;2023-04-25T11:56:02;6.03;;;1.43;;
5428;SDS011;2737;52.386;9.980;2023-04-25T12:01:26;7.60;;;1.73;;
5428;SDS011;2737;52.386;9.980;2023-04-25T12:03:54;3.77;;;1.50;;
5428;SDS011;2737;52.386;9.980;2023-04-25T12:06:21;2.47;;;1.00;;
5428;SDS011;2737;52.386;9.980;2023-04-25T12:08:59;2.80;;;0.90;;
5428;SDS011;2737;52.386;9.980;2023-04-25T12:11:26;1.57;;;0.80;;
5428;SDS011;2737;52.386;9.980;2023-04-25T12:13:55;3.07;;;1.10;;
5428;SDS011;2737;52.386;9.980;2023-04-25T12:16:22;2.70;;;1.10;;
5428;SDS011;2737;52.386;9.980;2023-04-25T12:18:52;11.30;;;1.70;;
5428;SDS011;2737;52.386;9.980;2023-04-25T12:21:20;9.77;;;1.80;;
5428;SDS011;2737;52.386;9.980;2023-04-25T12:23:47;9.27;;;2.30;;
5428;SDS011;2737;52.386;9.980;2023-04-25T12:26:14;6.70;;;2.10;;
5428;SDS011;2737;52.386;9.980;2023-04-25T12:28:44;4.67;;;1.80;;
5428;SDS011;2737;52.386;9.980;2023-04-25T12:31:12;6.83;;;1.30;;
5428;SDS011;2737;52.386;9.980;2023-04-25T12:33:40;4.27;;;1.33;;
5428;SDS011;2737;52.386;9.980;2023-04-25T12:36:10;6.87;;;1.23;;
5428;SDS011;2737;52.386;9.980;2023-04-25T12:38:38;7.37;;;1.17;;
5428;SDS011;2737;52.386;9.980;2023-04-25T12:41:07;4.13;;;1.17;;
5428;SDS011;2737;52.386;9.980;2023-04-25T12:43:34;2.80;;;1.03;;
5428;SDS011;2737;52.386;9.980;2023-04-25T12:46:01;2.63;;;0.87;;
5428;SDS011;2737;52.386;9.980;2023-04-25T12:48:29;2.93;;;1.00;;
5428;SDS011;2737;52.386;9.980;2023-04-25T12:50:56;4.00;;;1.07;;
5428;SDS011;2737;52.386;9.980;2023-04-25T12:53:25;2.70;;;0.80;;
5428;SDS011;2737;52.386;9.980;2023-04-25T12:55:52;4.70;;;1.10;;
5428;SDS011;2737;52.386;9.980;2023-04-25T12:58:19;2.93;;;1.57;;
5428;SDS011;2737;52.386;9.980;2023-04-25T13:00:46;3.03;;;0.90;;
5428;SDS011;2737;52.386;9.980;2023-04-25T13:03:13;6.17;;;1.00;;
5428;SDS011;2737;52.386;9.980;2023-04-25T13:05:40;2.77;;;0.90;;
5428;SDS011;2737;52.386;9.980;2023-04-25T13:08:08;4.77;;;0.80;;
5428;SDS011;2737;52.386;9.980;2023-04-25T13:10:36;1.37;;;0.80;;
5428;SDS011;2737;52.386;9.980;2023-04-25T13:13:04;1.47;;;0.60;;
5428;SDS011;2737;52.386;9.980;2023-04-25T13:15:31;2.63;;;0.80;;
5428;SDS011;2737;52.386;9.980;2023-04-25T13:17:58;1.60;;;0.90;;
5428;SDS011;2737;52.386;9.980;2023-04-25T13:20:25;6.83;;;1.20;;
5428;SDS011;2737;52.386;9.980;2023-04-25T13:22:52;1.03;;;0.93;;
5428;SDS011;2737;52.386;9.980;2023-04-25T13:25:19;1.60;;;0.60;;
5428;SDS011;2737;52.386;9.980;2023-04-25T13:27:48;4.13;;;0.90;;
5428;SDS011;2737;52.386;9.980;2023-04-25T13:30:15;4.40;;;0.90;;
5428;SDS011;2737;52.386;9.980;2023-04-25T13:32:42;1.73;;;1.00;;
5428;SDS011;2737;52.386;9.980;2023-04-25T13:35:10;1.90;;;0.80;;
5428;SDS011;2737;52.386;9.980;2023-04-25T13:37:39;7.83;;;1.73;;
5428;SDS011;2737;52.386;9.980;2023-04-25T13:40:06;5.93;;;1.20;;
5428;SDS011;2737;52.386;9.980;2023-04-25T13:42:35;8.40;;;1.27;;
5428;SDS011;2737;52.386;9.980;2023-04-25T13:45:03;1.17;;;0.97;;
5428;SDS011;2737;52.386;9.980;2023-04-25T13:47:31;3.63;;;1.00;;
5428;SDS011;2737;52.386;9.980;2023-04-25T13:49:58;4.27;;;1.27;;
5428;SDS011;2737;52.386;9.980;2023-04-25T13:52:27;3.67;;;1.30;;
5428;SDS011;2737;52.386;9.980;2023-04-25T13:54:54;4.87;;;1.23;;
5428;SDS011;2737;52.386;9.980;2023-04-25T13:57:21;3.40;;;1.10;;
5428;SDS011;2737;52.386;9.980;2023-04-25T13:59:48;2.13;;;0.97;;
5428;SDS011;2737;52.386;9.980;2023-04-25T14:02:17;5.40;;;1.20;;
5428;SDS011;2737;52.386;9.980;2023-04-25T14:04:44;4.77;;;1.40;;
5428;SDS011;2737;52.386;9.980;2023-04-25T14:07:11;5.13;;;1.20;;
5428;SDS011;2737;52.386;9.980;2023-04-25T14:09:41;4.37;;;1.20;;
5428;SDS011;2737;52.386;9.980;2023-04-25T14:12:08;3.70;;;1.20;;
5428;SDS011;2737;52.386;9.980;2023-04-25T14:14:35;4.10;;;1.30;;
5428;SDS011;2737;52.386;9.980;2023-04-25T14:17:02;8.83;;;1.87;;
5428;SDS011;2737;52.386;9.980;2023-04-25T14:19:31;2.30;;;0.90;;
5428;SDS011;2737;52.386;9.980;2023-04-25T14:21:58;5.87;;;1.00;;
5428;SDS011;2737;52.386;9.980;2023-04-25T14:24:25;1.70;;;1.00;;
5428;SDS011;2737;52.386;9.980;2023-04-25T14:26:52;8.00;;;0.93;;
5428;SDS011;2737;52.386;9.980;2023-04-25T14:29:19;5.30;;;1.07;;
5428;SDS011;2737;52.386;9.980;2023-04-25T14:31:46;2.60;;;1.10;;
5428;SDS011;2737;52.386;9.980;2023-04-25T14:34:13;1.20;;;0.90;;
5428;SDS011;2737;52.386;9.980;2023-04-25T14:36:42;7.83;;;1.27;;
5428;SDS011;2737;52.386;9.980;2023-04-25T14:39:09;1.13;;;0.90;;
5428;SDS011;2737;52.386;9.980;2023-04-25T14:41:37;4.20;;;0.90;;
5428;SDS011;2737;52.386;9.980;2023-04-25T14:44:04;5.80;;;1.17;;
5428;SDS011;2737;52.386;9.980;2023-04-25T14:46:31;5.57;;;1.10;;
5428;SDS011;2737;52.386;9.980;2023-04-25T14:48:59;6.80;;;1.30;;
5428;SDS011;2737;52.386;9.980;2023-04-25T14:51:27;2.97;;;1.17;;
5428;SDS011;2737;52.386;9.980;2023-04-25T14:53:56;2.83;;;1.10;;
5428;SDS011;2737;52.386;9.980;2023-04-25T14:56:23;2.20;;;1.10;;
5428;SDS011;2737;52.386;9.980;2023-04-25T14:58:50;7.50;;;1.13;;
5428;SDS011;2737;52.386;9.980;2023-04-25T15:01:17;3.90;;;1.10;;
5428;SDS011;2737;52.386;9.980;2023-04-25T15:03:45;5.10;;;1.00;;
5428;SDS011;2737;52.386;9.980;2023-04-25T15:06:13;3.80;;;1.20;;
5428;SDS011;2737;52.386;9.980;2023-04-25T15:08:40;3.70;;;1.07;;
5428;SDS011;2737;52.386;9.980;2023-04-25T15:11:08;6.60;;;1.20;;
5428;SDS011;2737;52.386;9.980;2023-04-25T15:13:36;3.80;;;1.20;;
5428;SDS011;2737;52.386;9.980;2023-04-25T15:16:03;3.73;;;1.00;;
5428;SDS011;2737;52.386;9.980;2023-04-25T15:18:31;1.70;;;1.10;;